Time;durP1;ratioP1;P1;durP2;ratioP2;P2;SDS_P1;SDS_P2;PMS_P1;PMS_P2;Temp;Humidity;BMP_temperature;BMP_pressure;BME280_temperature;BME280_humidity;BME280_pressure;Samples;Min_cycle;Max_cycle;Signal;HPM_P1;HPM_P2
2021/11/18 00:00:48;;;;;;;9.02;3.78;;;8.30;86.60;;;;;;5050899;28;20109;-77
2021/11/18 00:03:15;;;;;;;10.02;4.03;;;8.30;86.70;;;;;;5038081;28;20045;-76
2021/11/18 00:05:41;;;;;;;8.98;4.10;;;8.30;86.70;;;;;;5047215;28;20025;-76
2021/11/18 00:08:07;;;;;;;7.88;4.00;;;8.30;86.70;;;;;;5045635;28;20051;-76
2021/11/18 00:10:39;;;;;;;9.15;4.70;;;8.30;86.70;;;;;;5029042;28;20484;-76
2021/11/18 00:13:08;;;;;;;8.95;4.35;;;8.30;86.80;;;;;;5045370;28;20488;-77
2021/11/18 00:15:35;;;;;;;8.45;4.45;;;8.30;86.70;;;;;;5049013;28;20021;-76
2021/11/18 00:18:06;;;;;;;7.85;3.55;;;8.30;86.80;;;;;;5049934;28;20445;-76
2021/11/18 00:20:39;;;;;;;6.50;3.00;;;8.20;86.80;;;;;;5050451;28;20120;-76
2021/11/18 00:23:06;;;;;;;10.48;4.50;;;8.20;86.70;;;;;;5049839;28;20048;-76
2021/11/18 00:25:32;;;;;;;9.13;4.47;;;8.20;87.40;;;;;;5049793;28;20028;-76
2021/11/18 00:27:59;;;;;;;8.65;4.15;;;8.20;86.80;;;;;;5045314;28;20094;-76
2021/11/18 00:30:25;;;;;;;9.20;4.10;;;8.20;86.90;;;;;;5048645;28;20020;-76
2021/11/18 00:32:51;;;;;;;5.50;3.00;;;8.20;86.90;;;;;;5047157;28;20037;-77
2021/11/18 00:35:24;;;;;;;9.57;3.75;;;8.20;86.90;;;;;;5047916;28;20063;-77
2021/11/18 00:37:50;;;;;;;9.82;3.92;;;8.10;86.90;;;;;;5047739;28;20596;-77
2021/11/18 00:40:26;;;;;;;6.22;3.13;;;8.10;86.90;;;;;;5047569;28;20025;-76
2021/11/18 00:42:52;;;;;;;7.43;4.00;;;8.10;87.00;;;;;;5047855;28;20041;-77
2021/11/18 00:45:21;;;;;;;8.13;4.00;;;8.10;86.90;;;;;;5048018;28;20522;-77
2021/11/18 00:47:48;;;;;;;7.75;3.65;;;8.10;86.90;;;;;;5047869;28;20029;-77
2021/11/18 00:50:15;;;;;;;11.23;4.13;;;8.10;87.00;;;;;;5048978;28;20056;-77
2021/11/18 00:52:41;;;;;;;10.20;4.43;;;8.10;87.00;;;;;;5048697;28;20031;-77
2021/11/18 00:55:08;;;;;;;10.20;4.55;;;8.10;87.00;;;;;;5049007;28;20033;-77
2021/11/18 00:57:34;;;;;;;8.63;3.92;;;8.10;87.10;;;;;;5047641;28;20024;-77
2021/11/18 01:00:00;;;;;;;10.60;4.05;;;8.00;87.10;;;;;;5052457;28;20025;-77
2021/11/18 01:02:26;;;;;;;8.90;3.97;;;8.10;87.20;;;;;;5054993;28;20051;-76
2021/11/18 01:04:52;;;;;;;10.40;4.63;;;8.00;87.20;;;;;;5052263;28;20069;-77
2021/11/18 01:07:17;;;;;;;9.07;4.10;;;8.00;87.20;;;;;;5054728;28;20494;-77
2021/11/18 01:09:43;;;;;;;6.28;3.10;;;8.00;87.30;;;;;;5053047;28;20025;-76
2021/11/18 01:12:11;;;;;;;12.98;4.93;;;8.00;87.20;;;;;;5053223;28;20060;-76
2021/11/18 01:14:38;;;;;;;7.78;3.60;;;8.00;87.20;;;;;;5054087;28;20108;-77
2021/11/18 01:17:04;;;;;;;8.68;3.97;;;8.00;87.30;;;;;;5054838;28;20410;-76
2021/11/18 01:19:32;;;;;;;6.88;3.92;;;8.00;87.30;;;;;;5053682;28;20024;-76
2021/11/18 01:21:58;;;;;;;9.80;4.20;;;8.00;87.40;;;;;;5053905;28;20025;-77
2021/11/18 01:24:24;;;;;;;9.40;4.10;;;8.00;87.30;;;;;;5053737;28;20048;-76
2021/11/18 01:26:50;;;;;;;10.85;4.28;;;8.00;87.40;;;;;;5054300;28;20054;-76
2021/11/18 01:29:16;;;;;;;8.05;3.70;;;8.00;87.30;;;;;;5051262;28;20017;-76
2021/11/18 01:31:41;;;;;;;7.60;3.65;;;8.00;87.30;;;;;;5051470;28;20021;-75
2021/11/18 01:34:07;;;;;;;9.43;4.25;;;8.00;87.40;;;;;;5050718;28;20025;-76
2021/11/18 01:36:33;;;;;;;9.85;4.43;;;8.00;87.40;;;;;;5051886;28;20475;-76
2021/11/18 01:39:04;;;;;;;9.93;4.32;;;8.00;87.40;;;;;;5050808;28;20106;-75
2021/11/18 01:41:31;;;;;;;9.98;4.10;;;8.00;87.40;;;;;;5051033;28;20386;-76
2021/11/18 01:44:00;;;;;;;5.82;3.50;;;8.00;87.40;;;;;;5050846;28;20517;-76
2021/11/18 01:46:30;;;;;;;11.88;4.70;;;8.00;87.50;;;;;;5052021;28;20025;-76
2021/11/18 01:48:56;;;;;;;8.32;3.75;;;8.00;87.50;;;;;;5049418;28;20029;-76
2021/11/18 01:51:30;;;;;;;9.50;4.63;;;8.00;87.50;;;;;;5052644;28;20021;-76
2021/11/18 01:53:56;;;;;;;8.20;4.47;;;8.00;87.60;;;;;;5049930;28;20116;-76
2021/11/18 01:56:26;;;;;;;7.70;3.80;;;8.00;87.50;;;;;;5052596;28;20067;-76
2021/11/18 01:58:55;;;;;;;10.38;4.70;;;8.10;87.60;;;;;;5050891;28;20027;-76
2021/11/18 02:01:21;;;;;;;11.80;4.97;;;8.10;87.50;;;;;;5053720;28;20021;-76
2021/11/18 02:03:47;;;;;;;11.13;5.10;;;8.00;87.50;;;;;;5051984;28;20033;-76
2021/11/18 02:06:30;;;;;;;10.18;4.90;;;8.00;87.60;;;;;;5052877;28;20029;-76
2021/11/18 02:08:56;;;;;;;13.27;5.47;;;8.00;87.70;;;;;;5052771;28;20024;-76
2021/11/18 02:11:28;;;;;;;9.02;4.32;;;8.00;87.70;;;;;;5053514;28;20021;-76
2021/11/18 02:13:55;;;;;;;11.25;3.92;;;8.00;87.70;;;;;;5047925;28;20036;-76
2021/11/18 02:16:22;;;;;;;11.30;4.45;;;8.10;87.70;;;;;;5051587;28;20033;-75
2021/11/18 02:18:48;;;;;;;14.52;5.07;;;8.10;87.80;;;;;;5053462;28;20033;-75
2021/11/18 02:21:15;;;;;;;12.68;5.18;;;8.10;87.70;;;;;;5051635;28;20021;-76
2021/11/18 02:23:44;;;;;;;9.18;4.10;;;8.10;88.30;;;;;;5053009;28;20541;-75
2021/11/18 02:26:10;;;;;;;9.77;4.28;;;8.10;87.70;;;;;;5053063;28;20491;-75
2021/11/18 02:28:39;;;;;;;9.55;5.43;;;8.10;87.70;;;;;;5052286;28;20111;-75
2021/11/18 02:31:21;;;;;;;13.98;4.97;;;8.10;87.60;;;;;;5052827;28;20538;-76
2021/11/18 02:33:47;;;;;;;8.48;4.60;;;8.10;87.70;;;;;;5042221;28;20025;-76
2021/11/18 02:36:13;;;;;;;10.27;4.30;;;8.10;87.60;;;;;;5052622;28;20502;-76
2021/11/18 02:38:39;;;;;;;7.72;4.05;;;8.10;87.70;;;;;;5052954;28;20032;-77
2021/11/18 02:41:07;;;;;;;14.02;5.68;;;8.10;87.60;;;;;;5052917;28;20021;-77
2021/11/18 02:43:33;;;;;;;15.07;6.22;;;8.10;87.70;;;;;;5052374;28;20040;-76
2021/11/18 02:45:58;;;;;;;12.38;6.15;;;8.00;87.70;;;;;;5052673;28;20021;-77
2021/11/18 02:48:24;;;;;;;14.35;6.07;;;8.00;87.80;;;;;;5052778;28;20116;-76
2021/11/18 02:50:57;;;;;;;10.70;4.88;;;8.00;87.80;;;;;;5052683;28;20106;-76
2021/11/18 02:53:24;;;;;;;13.30;5.55;;;8.00;87.90;;;;;;5044965;28;20032;-77
2021/11/18 02:55:51;;;;;;;12.25;5.07;;;8.00;87.80;;;;;;5052719;28;20033;-77
2021/11/18 02:58:17;;;;;;;10.10;5.28;;;8.00;87.90;;;;;;5053081;28;20032;-77
2021/11/18 03:00:49;;;;;;;12.13;5.72;;;8.00;87.90;;;;;;5052201;28;20116;-77
2021/11/18 03:03:16;;;;;;;13.43;5.20;;;8.10;88.00;;;;;;5052008;28;20116;-76
2021/11/18 03:05:43;;;;;;;13.38;5.70;;;8.10;88.00;;;;;;5051306;28;20116;-76
2021/11/18 03:08:08;;;;;;;12.32;5.30;;;8.10;88.00;;;;;;5052144;28;20028;-76
2021/11/18 03:10:36;;;;;;;15.20;6.32;;;8.10;88.00;;;;;;5052129;28;20344;-76
2021/11/18 03:13:02;;;;;;;12.05;5.47;;;8.10;88.00;;;;;;5049315;28;20036;-77
2021/11/18 03:15:28;;;;;;;10.10;4.82;;;8.20;88.10;;;;;;5051488;28;20025;-76
2021/11/18 03:17:54;;;;;;;10.80;5.18;;;8.20;88.00;;;;;;5051464;28;20387;-76
2021/11/18 03:20:23;;;;;;;12.52;5.32;;;8.20;88.60;;;;;;5052335;28;20395;-76
2021/11/18 03:22:49;;;;;;;10.32;4.40;;;8.20;88.00;;;;;;5051698;28;20033;-76
2021/11/18 03:25:18;;;;;;;7.57;4.13;;;8.20;88.10;;;;;;5051661;28;20505;-76
2021/11/18 03:27:44;;;;;;;11.48;5.05;;;8.30;88.00;;;;;;5051604;28;20017;-76
2021/11/18 03:30:13;;;;;;;9.68;4.68;;;8.20;87.90;;;;;;5050553;28;20063;-75
2021/11/18 03:32:38;;;;;;;10.05;4.75;;;8.30;87.90;;;;;;5052326;28;20040;-76
2021/11/18 03:35:06;;;;;;;10.70;4.97;;;8.30;87.90;;;;;;5051173;28;20459;-76
2021/11/18 03:37:31;;;;;;;14.27;5.93;;;8.30;87.90;;;;;;5050455;28;20036;-75
2021/11/18 03:39:57;;;;;;;9.18;4.72;;;8.30;87.90;;;;;;5051947;28;20029;-77
2021/11/18 03:42:22;;;;;;;13.10;5.60;;;8.30;87.90;;;;;;5051209;28;20119;-77
2021/11/18 03:44:49;;;;;;;9.80;4.38;;;8.30;87.90;;;;;;5051180;28;20044;-78
2021/11/18 03:47:16;;;;;;;9.52;4.68;;;8.40;87.90;;;;;;5049863;28;20483;-77
2021/11/18 03:49:41;;;;;;;14.48;6.10;;;8.40;87.90;;;;;;5050595;28;20025;-77
2021/11/18 03:52:10;;;;;;;13.98;5.18;;;8.40;87.90;;;;;;5050988;28;20390;-78
2021/11/18 03:54:39;;;;;;;11.10;5.40;;;8.40;88.00;;;;;;5048743;28;20043;-78
2021/11/18 03:57:06;;;;;;;12.60;5.20;;;8.40;87.90;;;;;;5050487;28;20656;-78
2021/11/18 03:59:34;;;;;;;13.45;5.07;;;8.40;87.90;;;;;;5049235;28;20426;-78
2021/11/18 04:02:01;;;;;;;9.27;4.70;;;8.40;87.90;;;;;;5048638;28;20098;-78
2021/11/18 04:04:49;;;;;;;15.27;5.72;;;8.40;87.90;;;;;;5049016;28;20039;-77
2021/11/18 04:07:15;;;;;;;9.90;4.50;;;8.40;88.50;;;;;;5047784;28;20500;-77
2021/11/18 04:09:42;;;;;;;8.32;4.68;;;8.40;87.90;;;;;;5048976;28;20037;-77
2021/11/18 04:12:10;;;;;;;13.00;5.95;;;8.50;88.00;;;;;;5049114;28;20028;-77
2021/11/18 04:14:37;;;;;;;12.43;5.35;;;8.50;88.00;;;;;;5049057;28;20404;-77
2021/11/18 04:17:04;;;;;;;11.07;5.30;;;8.40;88.00;;;;;;5048654;28;20519;-77
2021/11/18 04:19:30;;;;;;;11.10;5.40;;;8.40;88.00;;;;;;5048088;28;20033;-77
2021/11/18 04:21:56;;;;;;;12.30;5.38;;;8.50;88.00;;;;;;5049546;28;20383;-77
2021/11/18 04:24:25;;;;;;;9.30;5.15;;;8.50;88.00;;;;;;5048172;28;20045;-77
2021/11/18 04:26:51;;;;;;;13.98;6.00;;;8.40;88.00;;;;;;5045529;28;20136;-77
2021/11/18 04:29:20;;;;;;;13.35;6.07;;;8.50;88.00;;;;;;5046486;28;20100;-77
2021/11/18 04:31:46;;;;;;;8.27;4.00;;;8.50;88.00;;;;;;5047171;28;20025;-76
2021/11/18 04:34:12;;;;;;;12.90;5.95;;;8.50;88.00;;;;;;5048610;28;20027;-76
2021/11/18 04:36:39;;;;;;;14.00;5.72;;;8.50;88.00;;;;;;5048567;28;20029;-76
2021/11/18 04:39:07;;;;;;;17.33;6.50;;;8.50;88.00;;;;;;5048135;28;20577;-77
2021/11/18 04:41:32;;;;;;;10.07;4.68;;;8.50;88.00;;;;;;5048471;28;20047;-78
2021/11/18 04:43:58;;;;;;;14.30;6.05;;;8.40;88.00;;;;;;5048376;28;20041;-78
2021/11/18 04:46:24;;;;;;;10.98;4.72;;;8.50;88.00;;;;;;5047706;28;20483;-76
2021/11/18 04:48:50;;;;;;;12.88;5.85;;;8.40;88.00;;;;;;5047181;28;20024;-77
2021/11/18 04:51:19;;;;;;;12.90;5.15;;;8.40;88.00;;;;;;5048871;28;20422;-76
2021/11/18 04:53:45;;;;;;;11.88;4.88;;;8.40;88.00;;;;;;5047633;28;20032;-75
2021/11/18 04:56:10;;;;;;;13.20;5.53;;;8.50;88.10;;;;;;5047735;28;20021;-76
2021/11/18 04:58:37;;;;;;;13.60;5.63;;;8.50;88.10;;;;;;5048419;28;20074;-76
2021/11/18 05:01:04;;;;;;;7.50;3.55;;;8.50;88.10;;;;;;5047909;28;20028;-76
2021/11/18 05:03:33;;;;;;;12.02;5.47;;;8.50;88.00;;;;;;5046552;28;20052;-76
2021/11/18 05:05:59;;;;;;;10.40;4.45;;;8.50;88.00;;;;;;5048201;28;20123;-75
2021/11/18 05:08:25;;;;;;;11.32;5.35;;;8.50;88.00;;;;;;5047464;28;20083;-76
2021/11/18 05:10:52;;;;;;;12.98;4.80;;;8.50;88.00;;;;;;5048234;28;20025;-76
2021/11/18 05:13:19;;;;;;;14.00;6.30;;;8.50;88.00;;;;;;5048298;28;20028;-76
2021/11/18 05:15:48;;;;;;;10.40;4.60;;;8.50;88.00;;;;;;5045983;28;20043;-76
2021/11/18 05:18:14;;;;;;;13.35;5.18;;;8.50;88.00;;;;;;5044010;28;20361;-76
2021/11/18 05:20:41;;;;;;;12.32;5.40;;;8.50;88.00;;;;;;5047205;28;20032;-77
2021/11/18 05:23:08;;;;;;;13.85;5.72;;;8.50;88.00;;;;;;5047821;28;20427;-78
2021/11/18 05:25:34;;;;;;;16.38;7.65;;;8.50;88.00;;;;;;5047736;28;20017;-75
2021/11/18 05:28:01;;;;;;;10.25;5.97;;;8.50;88.10;;;;;;5047409;28;20032;-77
2021/11/18 05:30:28;;;;;;;12.27;5.32;;;8.40;88.10;;;;;;5048008;28;20465;-77
2021/11/18 05:32:56;;;;;;;15.00;5.65;;;8.40;88.10;;;;;;5048283;28;20033;-77
2021/11/18 05:35:24;;;;;;;14.80;6.75;;;8.40;88.20;;;;;;5048546;28;20036;-77
2021/11/18 05:37:49;;;;;;;17.52;7.07;;;8.40;88.20;;;;;;5046256;28;20039;-77
2021/11/18 05:40:15;;;;;;;10.27;4.88;;;8.40;88.20;;;;;;5046939;28;20634;-76
2021/11/18 05:42:43;;;;;;;12.27;6.05;;;8.50;88.30;;;;;;5051461;28;20115;-76
2021/11/18 05:45:13;;;;;;;19.00;7.38;;;8.50;88.20;;;;;;5050821;28;20070;-76
2021/11/18 05:47:39;;;;;;;14.20;6.15;;;8.50;88.20;;;;;;5051393;28;20037;-77
2021/11/18 05:50:06;;;;;;;13.70;6.13;;;8.50;88.20;;;;;;5052829;28;20067;-76
2021/11/18 05:52:32;;;;;;;13.70;6.38;;;8.50;88.20;;;;;;5051260;28;20017;-76
2021/11/18 05:54:58;;;;;;;13.77;6.03;;;8.60;88.20;;;;;;5051215;28;20021;-75
2021/11/18 05:57:24;;;;;;;12.68;5.93;;;8.60;88.20;;;;;;5050866;28;20053;-76
2021/11/18 05:59:51;;;;;;;11.50;5.40;;;8.50;88.10;;;;;;5051410;28;20112;-76
2021/11/18 06:02:17;;;;;;;16.25;6.00;;;8.60;88.10;;;;;;5050912;28;20029;-75
2021/11/18 06:04:42;;;;;;;12.82;5.65;;;8.50;88.20;;;;;;5050271;28;20048;-77
2021/11/18 06:07:08;;;;;;;12.57;5.07;;;8.60;88.20;;;;;;5052062;28;20025;-77
2021/11/18 06:09:35;;;;;;;13.27;6.40;;;8.60;88.20;;;;;;5049364;28;20048;-76
2021/11/18 06:12:00;;;;;;;13.63;5.78;;;8.60;88.20;;;;;;5051369;28;20052;-75
2021/11/18 06:14:26;;;;;;;11.70;6.05;;;8.60;88.20;;;;;;5050877;28;20479;-76
2021/11/18 06:16:52;;;;;;;16.48;6.53;;;8.50;88.20;;;;;;5049926;28;20633;-75
2021/11/18 06:19:18;;;;;;;12.00;5.30;;;8.60;88.20;;;;;;5050511;28;20036;-76
2021/11/18 06:21:47;;;;;;;10.93;5.15;;;8.60;88.20;;;;;;5046473;28;20365;-76
2021/11/18 06:24:14;;;;;;;18.05;7.40;;;8.60;88.20;;;;;;5048676;28;20033;-76
2021/11/18 06:26:40;;;;;;;17.98;5.85;;;8.60;88.10;;;;;;5049897;28;20376;-76
2021/11/18 06:29:06;;;;;;;11.98;5.57;;;8.60;88.20;;;;;;5045324;28;20509;-76
2021/11/18 06:31:32;;;;;;;13.65;5.82;;;8.60;88.20;;;;;;5047682;28;20133;-77
2021/11/18 06:33:58;;;;;;;12.80;5.45;;;8.60;88.20;;;;;;5051786;28;20044;-78
2021/11/18 06:36:24;;;;;;;15.73;7.32;;;8.60;88.20;;;;;;5050171;28;20487;-80
2021/11/18 06:38:51;;;;;;;13.52;6.15;;;8.60;88.20;;;;;;5048097;28;20032;-76
2021/11/18 06:41:19;;;;;;;14.48;6.90;;;8.60;88.20;;;;;;5049281;28;20483;-76
2021/11/18 06:43:46;;;;;;;15.52;6.72;;;8.60;88.20;;;;;;5051020;28;20040;-77
2021/11/18 06:46:13;;;;;;;15.90;7.25;;;8.60;88.30;;;;;;5050427;28;20032;-77
2021/11/18 06:48:38;;;;;;;13.32;6.15;;;8.60;88.30;;;;;;5050763;28;20048;-78
2021/11/18 06:51:09;;;;;;;11.57;5.15;;;8.60;88.20;;;;;;5050806;28;20067;-76
2021/11/18 06:53:37;;;;;;;12.32;6.22;;;8.70;88.30;;;;;;5048914;28;20032;-77
2021/11/18 06:56:04;;;;;;;16.00;7.10;;;8.60;88.30;;;;;;5048962;28;20040;-77
2021/11/18 06:58:30;;;;;;;20.92;7.80;;;8.60;88.30;;;;;;5049684;28;20025;-77
2021/11/18 07:00:56;;;;;;;16.10;7.40;;;8.70;88.30;;;;;;5049703;28;20047;-77
2021/11/18 07:03:22;;;;;;;15.80;5.95;;;8.60;88.30;;;;;;5049196;28;20056;-77
2021/11/18 07:05:48;;;;;;;15.90;6.43;;;8.60;88.40;;;;;;5049639;28;20028;-78
2021/11/18 07:08:14;;;;;;;17.33;7.28;;;8.60;88.30;;;;;;5050862;28;20111;-76
2021/11/18 07:10:41;;;;;;;13.68;6.63;;;8.70;88.40;;;;;;5049120;28;20036;-77
2021/11/18 07:13:19;;;;;;;15.63;5.90;;;8.60;88.40;;;;;;5049337;28;20048;-76
2021/11/18 07:15:46;;;;;;;17.35;7.15;;;8.60;88.40;;;;;;5049838;28;20029;-77
2021/11/18 07:18:12;;;;;;;17.27;7.00;;;8.60;89.00;;;;;;5050256;28;20027;-77
2021/11/18 07:20:39;;;;;;;17.73;7.30;;;8.60;88.40;;;;;;5048683;28;20655;-78
2021/11/18 07:23:05;;;;;;;17.05;7.03;;;8.60;88.40;;;;;;5049833;28;20077;-77
2021/11/18 07:25:31;;;;;;;16.98;6.75;;;8.60;88.40;;;;;;5049394;28;20025;-77
2021/11/18 07:27:56;;;;;;;18.50;7.32;;;8.60;89.10;;;;;;5049609;28;20483;-79
2021/11/18 07:30:24;;;;;;;18.60;7.18;;;8.70;88.50;;;;;;5048105;28;20033;-78
2021/11/18 07:32:50;;;;;;;18.08;7.53;;;8.60;88.50;;;;;;5049112;28;20025;-78
2021/11/18 07:35:16;;;;;;;11.73;6.10;;;8.70;88.50;;;;;;5046941;28;20013;-78
2021/11/18 07:37:42;;;;;;;19.77;7.88;;;8.70;88.50;;;;;;5049915;28;20027;-79
2021/11/18 07:40:10;;;;;;;17.67;7.55;;;8.70;88.60;;;;;;5049228;28;20104;-79
2021/11/18 07:42:36;;;;;;;23.25;8.18;;;8.60;88.60;;;;;;5049915;28;20150;-78
2021/11/18 07:45:04;;;;;;;18.00;6.80;;;8.70;88.60;;;;;;5047195;28;21801;-78
2021/11/18 07:47:30;;;;;;;19.63;7.63;;;8.70;88.60;;;;;;5050505;28;20056;-79
2021/11/18 07:49:55;;;;;;;20.90;7.78;;;8.70;88.60;;;;;;5050194;28;20048;-79
2021/11/18 07:52:21;;;;;;;18.67;7.93;;;8.70;88.60;;;;;;5047966;28;20032;-79
2021/11/18 07:54:47;;;;;;;15.73;7.13;;;8.60;88.60;;;;;;5044694;28;20543;-78
2021/11/18 07:57:12;;;;;;;22.73;8.43;;;8.60;88.60;;;;;;5042377;28;20116;-79
2021/11/18 07:59:38;;;;;;;16.05;6.07;;;8.60;88.70;;;;;;5047331;28;20430;-79
2021/11/18 08:02:04;;;;;;;17.20;7.15;;;8.70;88.80;;;;;;5046679;28;20021;-80
2021/11/18 08:04:31;;;;;;;14.95;6.90;;;8.70;88.60;;;;;;5047951;28;20045;-77
2021/11/18 08:06:59;;;;;;;21.27;7.68;;;8.70;88.60;;;;;;5049010;28;20032;-81
2021/11/18 08:09:25;;;;;;;16.73;7.15;;;8.70;88.60;;;;;;5048012;28;20020;-77
2021/11/18 08:11:56;;;;;;;19.50;8.48;;;8.70;88.70;;;;;;5048272;28;20079;-77
2021/11/18 08:14:22;;;;;;;17.67;8.45;;;8.70;88.60;;;;;;5046537;28;20055;-78
2021/11/18 08:16:48;;;;;;;15.75;5.90;;;8.70;88.70;;;;;;5046427;28;20021;-77
2021/11/18 08:19:14;;;;;;;17.75;7.07;;;8.70;88.70;;;;;;5047123;28;20047;-78
2021/11/18 08:21:40;;;;;;;12.52;6.40;;;8.70;88.70;;;;;;5048259;28;20025;-75
2021/11/18 08:24:08;;;;;;;24.00;9.70;;;8.70;88.70;;;;;;5046276;28;20041;-77
2021/11/18 08:26:34;;;;;;;18.77;8.38;;;8.70;88.80;;;;;;5045912;28;20116;-77
2021/11/18 08:29:00;;;;;;;19.13;8.32;;;8.70;88.80;;;;;;5046721;28;20059;-78
2021/11/18 08:31:27;;;;;;;19.23;7.55;;;8.70;88.70;;;;;;5047289;28;20033;-77
2021/11/18 08:33:53;;;;;;;18.80;8.25;;;8.70;88.70;;;;;;5046192;28;20020;-77
2021/11/18 08:36:20;;;;;;;15.82;6.95;;;8.70;88.60;;;;;;5045082;28;20033;-77
2021/11/18 08:38:47;;;;;;;20.05;9.30;;;8.80;88.70;;;;;;5046476;28;20059;-78
2021/11/18 08:41:13;;;;;;;21.50;8.48;;;8.70;88.60;;;;;;5045400;28;20082;-77
2021/11/18 08:43:42;;;;;;;20.52;8.85;;;8.70;88.50;;;;;;5047878;28;20033;-78
2021/11/18 08:46:09;;;;;;;16.73;7.32;;;8.70;88.60;;;;;;5044396;28;20104;-77
2021/11/18 08:48:38;;;;;;;17.48;8.70;;;8.80;88.60;;;;;;5049165;28;20025;-77
2021/11/18 08:51:04;;;;;;;15.73;7.18;;;8.80;88.60;;;;;;5048410;28;20021;-77
2021/11/18 08:53:33;;;;;;;18.08;7.88;;;8.80;88.60;;;;;;5048710;28;20598;-79
2021/11/18 08:55:59;;;;;;;20.48;8.23;;;8.80;88.60;;;;;;5048778;28;20040;-78
2021/11/18 08:58:28;;;;;;;18.58;7.43;;;8.80;88.60;;;;;;5047566;28;20017;-78
2021/11/18 09:01:01;;;;;;;20.23;8.18;;;8.90;89.20;;;;;;5039810;28;20115;-78
2021/11/18 09:03:33;;;;;;;25.50;9.75;;;8.90;88.60;;;;;;5047094;28;20061;-78
2021/11/18 09:05:59;;;;;;;17.45;7.72;;;8.90;88.60;;;;;;5043788;28;20083;-79
2021/11/18 09:08:25;;;;;;;18.30;7.63;;;9.00;88.60;;;;;;5045607;28;20028;-78
2021/11/18 09:10:51;;;;;;;25.55;8.60;;;9.00;88.50;;;;;;5046551;28;20090;-78
2021/11/18 09:13:19;;;;;;;21.90;9.32;;;9.00;88.50;;;;;;5045384;28;20036;-79
2021/11/18 09:15:45;;;;;;;22.45;8.93;;;9.00;89.10;;;;;;5047318;28;20020;-78
2021/11/18 09:18:11;;;;;;;20.23;8.13;;;9.00;88.50;;;;;;5048059;28;20021;-79
2021/11/18 09:20:38;;;;;;;19.15;8.38;;;9.10;88.50;;;;;;5048684;28;20028;-78
2021/11/18 09:23:05;;;;;;;21.88;8.98;;;9.10;88.50;;;;;;5049436;28;20041;-78
2021/11/18 09:25:40;;;;;;;24.85;8.93;;;9.20;88.50;;;;;;5046478;28;20025;-78
2021/11/18 09:28:06;;;;;;;13.48;6.32;;;9.20;88.50;;;;;;5053519;28;20049;-79
2021/11/18 09:30:42;;;;;;;18.42;7.72;;;9.30;88.40;;;;;;5052827;28;20045;-78
2021/11/18 09:33:10;;;;;;;26.75;10.55;;;9.30;88.30;;;;;;5052536;28;20503;-76
2021/11/18 09:35:39;;;;;;;26.20;10.70;;;9.40;88.40;;;;;;5051720;28;20033;-78
2021/11/18 09:38:06;;;;;;;26.20;8.85;;;9.40;88.30;;;;;;5048852;28;20044;-77
2021/11/18 09:41:00;;;;;;;24.42;9.63;;;9.40;88.20;;;;;;5049794;28;20158;-77
2021/11/18 09:43:54;;;;;;;24.67;9.13;;;9.50;88.20;;;;;;5038713;28;20058;-78
2021/11/18 09:46:57;;;;;;;20.38;8.75;;;9.50;88.20;;;;;;5051274;28;20029;-78
2021/11/18 09:49:50;;;;;;;25.08;9.35;;;9.60;88.20;;;;;;5051396;28;20530;-78
2021/11/18 09:52:53;;;;;;;25.13;10.05;;;9.60;88.10;;;;;;5052934;28;20029;-77
2021/11/18 09:55:47;;;;;;;22.92;9.05;;;9.60;88.10;;;;;;5048362;28;20035;-78
2021/11/18 09:58:12;;;;;;;21.50;8.85;;;9.70;88.10;;;;;;5049238;28;20024;-78
2021/11/18 10:00:46;;;;;;;23.40;9.15;;;9.70;88.00;;;;;;5053098;28;20029;-78
2021/11/18 10:03:29;;;;;;;29.10;10.05;;;9.70;87.90;;;;;;5046040;28;20025;-78
2021/11/18 10:06:24;;;;;;;23.92;9.65;;;9.80;87.90;;;;;;5050362;28;20570;-79
2021/11/18 12:08:41;;;;;;;15.00;6.00;;;9.70;88.10;;;;;;5116317;27;21216;-81
2021/11/18 12:11:43;;;;;;;20.25;6.15;;;9.70;89.20;;;;;;5112170;27;20073;-81
2021/11/18 12:14:21;;;;;;;19.45;6.47;;;9.90;90.20;;;;;;5101034;28;20024;-80
2021/11/18 12:16:58;;;;;;;22.17;6.72;;;10.10;90.50;;;;;;5103375;28;20061;-79
2021/11/18 12:19:35;;;;;;;26.20;7.53;;;10.30;90.40;;;;;;5088211;28;20042;-79
2021/11/18 12:22:39;;;;;;;16.77;6.40;;;10.50;89.80;;;;;;5092809;28;20028;-82
2021/11/18 12:25:28;;;;;;;;;;;10.70;89.30;;;;;;5080681;28;20117;-80
2021/11/18 12:28:13;;;;;;;15.52;5.90;;;10.90;88.90;;;;;;5088600;28;19916;-79
2021/11/18 12:31:02;;;;;;;21.10;7.03;;;11.10;88.60;;;;;;5088540;28;20043;-79
2021/11/18 12:33:36;;;;;;;14.95;5.80;;;11.20;87.60;;;;;;5092202;28;20039;-80
2021/11/18 12:36:24;;;;;;;14.50;6.45;;;11.30;87.50;;;;;;5091443;28;20019;-79
2021/11/18 12:39:28;;;;;;;17.80;6.18;;;11.40;86.80;;;;;;5084553;28;20024;-80
2021/11/18 12:42:02;;;;;;;18.08;6.00;;;11.50;86.20;;;;;;5092280;28;20032;-79
2021/11/18 12:45:06;;;;;;;16.45;5.85;;;11.60;85.80;;;;;;5088472;28;20031;-79
2021/11/18 12:48:06;;;;;;;16.17;6.50;;;11.60;85.10;;;;;;5068091;28;20563;-79
2021/11/18 12:50:41;;;;;;;16.10;5.97;;;11.70;84.60;;;;;;5087534;28;20028;-79
2021/11/18 12:53:18;;;;;;;17.55;5.55;;;11.80;84.50;;;;;;5082479;28;20056;-81
2021/11/18 12:55:44;;;;;;;16.92;6.13;;;11.80;84.20;;;;;;5092680;28;20058;-79
2021/11/18 12:58:36;;;;;;;12.85;4.80;;;11.90;84.30;;;;;;5081165;28;20021;-77
2021/11/18 13:01:21;;;;;;;17.40;5.78;;;12.00;83.70;;;;;;5086132;28;20108;-80
2021/11/18 13:03:48;;;;;;;11.65;4.55;;;12.00;83.30;;;;;;5083305;28;20036;-76
2021/11/18 13:06:28;;;;;;;18.35;5.97;;;12.10;83.50;;;;;;5082756;28;20075;-80
2021/11/18 13:08:59;;;;;;;17.95;6.20;;;12.10;82.80;;;;;;5100248;28;20021;-80
2021/11/18 13:11:27;;;;;;;17.95;6.28;;;12.20;82.60;;;;;;5101961;28;20115;-80
2021/11/18 13:14:08;;;;;;;18.25;5.60;;;12.10;81.70;;;;;;5089370;28;20635;-80
2021/11/18 13:16:48;;;;;;;16.42;4.97;;;12.10;81.70;;;;;;5088551;28;20036;-77
2021/11/18 13:19:23;;;;;;;17.42;5.60;;;12.10;82.00;;;;;;5070600;28;20020;-77
2021/11/18 13:22:05;;;;;;;15.40;5.70;;;12.10;81.40;;;;;;5089241;28;20021;-78
2021/11/18 13:24:50;;;;;;;14.40;5.20;;;12.10;81.20;;;;;;5068517;28;20471;-77
2021/11/18 13:27:31;;;;;;;17.20;5.22;;;12.10;80.80;;;;;;5058262;28;20311;-78
2021/11/18 13:29:58;;;;;;;16.63;5.85;;;12.10;80.60;;;;;;5075155;28;20075;-78
2021/11/18 13:32:28;;;;;;;17.33;5.85;;;12.00;80.40;;;;;;5078083;28;20024;-77
2021/11/18 13:35:07;;;;;;;14.02;5.00;;;12.10;80.40;;;;;;5063549;28;20048;-78
2021/11/18 13:37:37;;;;;;;16.83;5.97;;;12.10;80.40;;;;;;5064328;28;20033;-77
2021/11/18 13:40:09;;;;;;;16.83;5.30;;;12.10;79.90;;;;;;5064907;28;20065;-79
2021/11/18 13:42:39;;;;;;;10.98;4.50;;;12.10;80.20;;;;;;5086465;28;20077;-79
2021/11/18 13:45:16;;;;;;;18.40;5.70;;;12.10;80.20;;;;;;5107056;27;20034;-79
2021/11/18 13:48:04;;;;;;;14.85;4.93;;;12.10;79.80;;;;;;5070460;28;20043;-79
2021/11/18 13:50:34;;;;;;;15.10;4.88;;;12.00;79.80;;;;;;5071911;28;20017;-82
2021/11/18 13:53:24;;;;;;;12.48;4.50;;;12.00;79.90;;;;;;5073329;28;20040;-82
2021/11/18 13:55:58;;;;;;;20.52;5.57;;;12.00;80.00;;;;;;5070628;28;20020;-82
2021/11/18 13:58:26;;;;;;;14.15;4.53;;;12.00;79.80;;;;;;5071362;28;20098;-80
2021/11/18 14:00:55;;;;;;;13.52;5.32;;;12.00;79.90;;;;;;5071426;28;20064;-85
2021/11/18 14:03:26;;;;;;;18.90;6.13;;;12.00;79.80;;;;;;5069515;28;20090;-82
2021/11/18 14:05:55;;;;;;;17.63;6.40;;;12.00;79.60;;;;;;5071701;28;20454;-80
2021/11/18 14:08:27;;;;;;;13.77;5.05;;;12.00;79.60;;;;;;5072357;28;20028;-82
2021/11/18 14:11:02;;;;;;;17.23;5.35;;;12.00;79.70;;;;;;5066603;28;20024;-82
2021/11/18 14:13:42;;;;;;;16.17;5.38;;;11.90;79.60;;;;;;5069164;28;20033;-80
2021/11/18 14:16:11;;;;;;;12.60;4.63;;;12.00;79.80;;;;;;5062508;28;20089;-80
2021/11/18 14:18:58;;;;;;;13.80;4.88;;;12.00;80.00;;;;;;5090272;28;20024;-81
2021/11/18 14:21:49;;;;;;;13.65;4.95;;;12.00;79.90;;;;;;5081249;28;20047;-79
2021/11/18 14:24:33;;;;;;;17.92;5.50;;;12.00;79.90;;;;;;5077108;28;20032;-78
2021/11/18 14:27:06;;;;;;;18.58;5.22;;;11.90;79.90;;;;;;5072111;28;20565;-79
2021/11/18 14:29:46;;;;;;;12.20;4.55;;;12.00;79.90;;;;;;5073759;28;20094;-79
2021/11/18 15:06:03;;;;;;;13.93;3.55;;;10.50;80.80;;;;;;5120360;27;20397;-78
2021/11/18 15:08:28;;;;;;;11.23;2.70;;;10.50;81.60;;;;;;5108444;28;20070;-78
2021/11/18 15:10:54;;;;;;;11.65;3.10;;;10.50;83.30;;;;;;5102330;28;20028;-80
2021/11/18 15:13:21;;;;;;;9.90;3.50;;;10.60;84.40;;;;;;5105179;28;20024;-80
2021/11/18 15:15:47;;;;;;;11.35;3.22;;;10.80;84.90;;;;;;5108834;28;20020;-79
2021/11/18 15:18:13;;;;;;;12.38;4.00;;;10.90;85.00;;;;;;5105851;28;20091;-80
2021/11/18 15:20:44;;;;;;;12.20;3.60;;;11.00;84.90;;;;;;5095359;27;20019;-80
2021/11/18 15:23:11;;;;;;;13.73;4.15;;;11.20;84.80;;;;;;5100489;28;20036;-81
2021/11/18 15:25:38;;;;;;;12.32;3.47;;;11.20;84.40;;;;;;5103437;28;20076;-82
2021/11/18 15:28:06;;;;;;;11.23;3.63;;;11.40;85.00;;;;;;5105710;28;20073;-80
2021/11/18 15:30:42;;;;;;;14.93;3.53;;;11.40;84.20;;;;;;5107490;28;20028;-77
2021/11/18 15:33:09;;;;;;;9.57;3.03;;;11.50;83.90;;;;;;5108393;28;20083;-77
2021/11/18 15:35:36;;;;;;;9.98;3.05;;;11.60;83.80;;;;;;5107174;28;20024;-78